Time;durP1;ratioP1;P1;durP2;ratioP2;P2;SDS_P1;SDS_P2;PMS_P1;PMS_P2;Temp;Humidity;BMP_temperature;BMP_pressure;BME280_temperature;BME280_humidity;BME280_pressure;Samples;Min_cycle;Max_cycle;Signal;HPM_P1;HPM_P2
2024/01/09 00:01:13;;;;;;;7.22;2.92;;;-1.60;99.90;;;;;;4862861;29;20200;-75
2024/01/09 00:03:42;;;;;;;7.22;2.78;;;-1.60;99.90;;;;;;4862449;29;20064;-75
2024/01/09 00:06:19;;;;;;;7.53;2.53;;;-1.70;99.90;;;;;;4862947;29;20148;-75
2024/01/09 00:08:45;;;;;;;7.45;3.38;;;-1.70;99.90;;;;;;4863854;29;20052;-75
2024/01/09 00:11:15;;;;;;;4.85;2.05;;;-1.70;99.90;;;;;;4866157;29;20049;-75
2024/01/09 00:13:41;;;;;;;5.47;2.10;;;-1.70;99.90;;;;;;4866125;29;20045;-75
2024/01/09 00:16:07;;;;;;;5.97;2.63;;;-1.70;99.90;;;;;;4866137;29;20141;-75
2024/01/09 00:18:32;;;;;;;5.60;3.08;;;-1.70;99.90;;;;;;4882809;29;20040;-75
2024/01/09 00:20:58;;;;;;;5.45;2.72;;;-1.70;99.90;;;;;;4865939;29;20593;-75
2024/01/09 00:23:23;;;;;;;5.53;2.20;;;-1.80;99.90;;;;;;4866105;29;20048;-75
2024/01/09 00:25:49;;;;;;;7.30;3.53;;;-1.80;99.90;;;;;;4866168;29;20056;-75
2024/01/09 00:28:15;;;;;;;5.90;2.72;;;-1.80;99.90;;;;;;4865897;29;20482;-75
2024/01/09 00:30:40;;;;;;;7.07;2.45;;;-1.70;99.90;;;;;;4865913;29;20091;-75
2024/01/09 00:33:06;;;;;;;8.38;2.85;;;-1.80;99.90;;;;;;4866254;29;20141;-75
2024/01/09 00:35:32;;;;;;;5.80;2.40;;;-1.80;99.90;;;;;;4865689;29;20053;-75
2024/01/09 00:38:00;;;;;;;7.13;2.08;;;-1.80;99.90;;;;;;4865669;29;20477;-75
2024/01/09 00:40:26;;;;;;;6.75;2.47;;;-1.80;99.90;;;;;;4865913;29;20092;-75
2024/01/09 00:42:51;;;;;;;7.68;2.90;;;-1.90;99.90;;;;;;4865672;29;20489;-75
2024/01/09 00:45:20;;;;;;;5.47;2.58;;;-1.90;99.90;;;;;;4865477;29;20057;-75
2024/01/09 00:47:45;;;;;;;6.88;2.97;;;-1.90;99.90;;;;;;4865646;29;20135;-75
2024/01/09 00:50:11;;;;;;;7.57;3.13;;;-1.90;99.90;;;;;;4865466;29;20045;-75
2024/01/09 00:52:36;;;;;;;7.97;3.28;;;-1.90;99.90;;;;;;4882248;29;20131;-75
2024/01/09 00:55:02;;;;;;;5.03;2.22;;;-1.90;99.90;;;;;;4865696;29;20056;-75
2024/01/09 00:57:28;;;;;;;6.95;2.53;;;-2.00;99.90;;;;;;4865215;29;20485;-75
2024/01/09 00:59:53;;;;;;;7.53;2.63;;;-2.00;99.90;;;;;;4865343;29;20139;-75
2024/01/09 01:02:19;;;;;;;8.30;3.00;;;-2.00;99.90;;;;;;4864935;29;20053;-75
2024/01/09 01:04:45;;;;;;;10.27;3.08;;;-2.00;99.90;;;;;;4864955;29;20489;-75
2024/01/09 01:07:10;;;;;;;5.05;2.58;;;-2.00;99.90;;;;;;4865124;29;20486;-75
2024/01/09 01:09:40;;;;;;;6.10;3.13;;;-2.00;99.90;;;;;;4865186;29;20049;-75
2024/01/09 01:12:05;;;;;;;3.75;1.75;;;-2.00;99.90;;;;;;4865004;29;20053;-75
2024/01/09 01:14:31;;;;;;;5.95;2.90;;;-2.00;99.90;;;;;;4864869;29;20053;-75
2024/01/09 01:16:57;;;;;;;7.50;3.22;;;-2.00;99.90;;;;;;4865153;29;20145;-75
2024/01/09 01:19:22;;;;;;;5.55;2.30;;;-2.00;99.90;;;;;;4864716;29;20208;-75
2024/01/09 01:21:48;;;;;;;6.82;2.95;;;-2.00;99.90;;;;;;4864948;29;20472;-75
2024/01/09 01:24:14;;;;;;;6.43;2.95;;;-2.00;99.90;;;;;;4864908;29;20060;-75
2024/01/09 01:26:39;;;;;;;9.27;2.70;;;-2.10;99.90;;;;;;4864933;29;20045;-75
2024/01/09 01:29:05;;;;;;;7.65;3.63;;;-2.10;99.90;;;;;;4865114;29;20052;-75
2024/01/09 01:31:30;;;;;;;5.25;2.53;;;-2.10;99.90;;;;;;4864717;29;20442;-75
2024/01/09 01:33:56;;;;;;;8.38;2.55;;;-2.10;99.90;;;;;;4864801;29;20045;-75
2024/01/09 01:36:22;;;;;;;10.40;3.05;;;-2.10;99.90;;;;;;4864654;29;20049;-75
2024/01/09 01:38:48;;;;;;;15.63;2.88;;;-2.10;99.90;;;;;;4864650;29;20140;-75
2024/01/09 01:41:13;;;;;;;9.20;3.13;;;-2.10;99.90;;;;;;4864665;29;20049;-75
2024/01/09 01:43:39;;;;;;;8.25;3.47;;;-2.10;99.90;;;;;;4864524;29;20088;-75
2024/01/09 01:46:05;;;;;;;8.60;2.90;;;-2.00;99.90;;;;;;4864401;29;20396;-75
2024/01/09 01:48:31;;;;;;;7.90;3.10;;;-2.00;99.90;;;;;;4864420;29;20045;-75
2024/01/09 01:50:58;;;;;;;4.88;2.60;;;-2.00;99.90;;;;;;4864351;29;20048;-75
2024/01/09 01:53:25;;;;;;;5.78;2.22;;;-2.00;99.90;;;;;;4864582;29;20045;-75
2024/01/09 01:55:50;;;;;;;10.05;3.40;;;-2.00;99.90;;;;;;4864387;29;20065;-75
2024/01/09 01:58:16;;;;;;;10.82;3.03;;;-2.00;99.90;;;;;;4864556;29;20201;-75
2024/01/09 02:00:42;;;;;;;9.07;3.15;;;-2.00;99.90;;;;;;4864105;29;20053;-75
2024/01/09 02:03:12;;;;;;;7.15;3.10;;;-1.90;99.90;;;;;;4864062;29;20048;-75
2024/01/09 02:05:38;;;;;;;7.07;2.60;;;-1.90;99.90;;;;;;4863810;29;20061;-75
2024/01/09 02:08:05;;;;;;;7.85;2.92;;;-2.00;99.90;;;;;;4864189;29;20053;-75
2024/01/09 02:10:31;;;;;;;7.75;2.65;;;-2.00;99.90;;;;;;4863937;29;20112;-75
2024/01/09 02:12:56;;;;;;;7.63;2.70;;;-2.00;99.90;;;;;;4863925;29;20052;-75
2024/01/09 02:15:22;;;;;;;5.50;2.65;;;-2.00;99.90;;;;;;4864205;29;20160;-75
2024/01/09 02:17:48;;;;;;;7.43;3.00;;;-2.00;99.90;;;;;;4864191;29;20116;-75
2024/01/09 02:20:13;;;;;;;5.10;2.58;;;-2.00;99.90;;;;;;4864082;29;20495;-75
2024/01/09 02:22:39;;;;;;;8.52;2.40;;;-2.00;99.90;;;;;;4863957;29;20485;-75
2024/01/09 02:25:05;;;;;;;6.25;2.47;;;-2.00;99.90;;;;;;4863840;29;20053;-75
2024/01/09 02:27:49;;;;;;;7.80;3.05;;;-2.00;99.90;;;;;;4863698;29;20049;-75
2024/01/09 02:30:16;;;;;;;6.53;2.38;;;-2.00;99.90;;;;;;4863811;29;20248;-75
2024/01/09 02:32:42;;;;;;;5.95;2.70;;;-2.00;99.90;;;;;;4863369;29;20144;-76
2024/01/09 02:35:08;;;;;;;7.35;2.85;;;-2.00;99.90;;;;;;4864042;29;20485;-75
2024/01/09 02:37:34;;;;;;;8.65;3.08;;;-2.00;99.90;;;;;;4863673;29;20123;-75
2024/01/09 02:40:00;;;;;;;6.32;2.85;;;-2.00;99.90;;;;;;4863745;29;20057;-75
2024/01/09 02:42:29;;;;;;;6.13;2.40;;;-2.00;99.90;;;;;;4863415;29;20082;-75
2024/01/09 02:44:55;;;;;;;7.00;2.90;;;-2.00;99.90;;;;;;4863485;29;20108;-75
2024/01/09 02:47:25;;;;;;;5.80;2.97;;;-2.00;99.90;;;;;;4863461;29;20124;-75
2024/01/09 02:49:50;;;;;;;6.55;2.65;;;-2.10;99.90;;;;;;4863420;29;20405;-75
2024/01/09 02:52:16;;;;;;;10.63;3.00;;;-2.10;99.90;;;;;;4863766;29;20510;-75
2024/01/09 02:54:42;;;;;;;6.40;2.60;;;-2.10;99.90;;;;;;4863316;29;20052;-75
2024/01/09 02:57:09;;;;;;;6.40;2.60;;;-2.10;99.90;;;;;;4863337;29;20052;-75
2024/01/09 02:59:35;;;;;;;7.93;3.05;;;-2.10;99.90;;;;;;4863324;29;20129;-75
2024/01/09 03:02:01;;;;;;;6.90;2.90;;;-2.20;99.90;;;;;;4863473;29;20132;-75
2024/01/09 03:04:26;;;;;;;7.15;3.53;;;-2.20;99.90;;;;;;4863184;29;20079;-75
2024/01/09 03:06:52;;;;;;;7.25;2.50;;;-2.10;99.90;;;;;;4863208;29;20125;-75
2024/01/09 03:09:18;;;;;;;7.45;2.80;;;-2.20;99.90;;;;;;4863192;29;20059;-75
2024/01/09 03:11:44;;;;;;;6.38;2.65;;;-2.20;99.90;;;;;;4863063;29;20045;-75
2024/01/09 03:14:10;;;;;;;7.40;3.08;;;-2.20;99.90;;;;;;4863124;29;20135;-75
2024/01/09 03:16:35;;;;;;;6.15;2.58;;;-2.20;99.90;;;;;;4863125;29;20053;-75
2024/01/09 03:19:01;;;;;;;5.22;2.38;;;-2.30;99.90;;;;;;4863239;29;20048;-75
2024/01/09 03:21:26;;;;;;;7.10;2.45;;;-2.20;99.90;;;;;;4863396;29;20049;-76
2024/01/09 03:23:52;;;;;;;6.25;2.63;;;-2.20;99.90;;;;;;4863179;29;20045;-76
2024/01/09 03:26:18;;;;;;;6.28;2.60;;;-2.20;99.90;;;;;;4863017;29;20045;-76
2024/01/09 03:28:46;;;;;;;6.68;3.35;;;-2.30;99.90;;;;;;4863268;29;20052;-76
2024/01/09 03:31:22;;;;;;;6.07;2.90;;;-2.20;99.90;;;;;;4879857;29;20056;-76
2024/01/09 03:33:48;;;;;;;6.85;3.33;;;-2.30;99.90;;;;;;4863051;29;20052;-76
2024/01/09 03:36:14;;;;;;;8.18;4.03;;;-2.30;99.90;;;;;;4863032;29;20056;-75
2024/01/09 03:38:41;;;;;;;7.78;3.28;;;-2.30;99.90;;;;;;4862789;29;20132;-75
2024/01/09 03:41:06;;;;;;;9.50;2.85;;;-2.30;99.90;;;;;;4863151;29;20080;-76
2024/01/09 03:43:32;;;;;;;6.15;3.10;;;-2.30;99.90;;;;;;4881815;29;20100;-76
2024/01/09 03:45:58;;;;;;;4.95;2.45;;;-2.30;99.90;;;;;;4866581;29;20577;-76
2024/01/09 03:48:23;;;;;;;8.95;3.40;;;-2.40;99.90;;;;;;4866909;29;20065;-76
2024/01/09 03:50:49;;;;;;;9.48;4.00;;;-2.30;99.90;;;;;;4883095;29;20139;-76
2024/01/09 03:53:15;;;;;;;7.05;3.10;;;-2.40;99.90;;;;;;4866587;29;20064;-75
2024/01/09 03:55:41;;;;;;;8.40;3.20;;;-2.40;99.90;;;;;;4866380;29;20505;-76
2024/01/09 03:58:07;;;;;;;9.30;3.30;;;-2.30;99.90;;;;;;4866616;29;20056;-76
2024/01/09 04:00:33;;;;;;;6.43;2.90;;;-2.30;99.90;;;;;;4866430;29;20490;-76
2024/01/09 04:02:59;;;;;;;7.93;2.67;;;-2.30;99.90;;;;;;4866578;29;20060;-76
2024/01/09 04:05:25;;;;;;;11.48;3.10;;;-2.30;99.90;;;;;;4865911;29;20189;-76
2024/01/09 04:07:51;;;;;;;6.45;3.20;;;-2.30;99.90;;;;;;4866194;29;20131;-75
2024/01/09 04:10:16;;;;;;;7.25;3.42;;;-2.20;99.90;;;;;;4866111;29;20048;-76
2024/01/09 04:12:42;;;;;;;10.38;3.10;;;-2.30;99.90;;;;;;4866027;29;20044;-75
2024/01/09 04:15:08;;;;;;;4.65;2.45;;;-2.20;99.90;;;;;;4866205;29;20045;-76
2024/01/09 04:17:34;;;;;;;6.97;3.17;;;-2.20;99.90;;;;;;4866401;29;20121;-76
2024/01/09 04:20:01;;;;;;;8.02;3.90;;;-2.20;99.90;;;;;;4865961;29;20174;-76
2024/01/09 04:22:27;;;;;;;6.25;3.25;;;-2.30;99.90;;;;;;4866176;29;20067;-76
2024/01/09 04:24:56;;;;;;;5.20;2.78;;;-2.30;99.90;;;;;;4865793;29;20128;-76
2024/01/09 04:27:22;;;;;;;7.80;3.08;;;-2.30;99.90;;;;;;4865903;29;20153;-75
2024/01/09 04:29:47;;;;;;;7.78;2.65;;;-2.30;99.90;;;;;;4865882;29;20041;-75
2024/01/09 04:32:16;;;;;;;8.15;3.78;;;-2.30;99.90;;;;;;4866098;29;20045;-75
2024/01/09 04:34:42;;;;;;;4.72;2.70;;;-2.30;99.90;;;;;;4865676;29;20473;-76
2024/01/09 04:37:08;;;;;;;9.15;3.35;;;-2.30;99.90;;;;;;4865782;29;20047;-75
2024/01/09 04:39:34;;;;;;;9.30;3.15;;;-2.30;99.90;;;;;;4882325;29;20128;-76
2024/01/09 04:41:59;;;;;;;6.97;2.72;;;-2.30;99.90;;;;;;4865979;29;20043;-75
2024/01/09 04:44:25;;;;;;;9.75;4.57;;;-2.30;99.90;;;;;;4865598;29;20041;-75
2024/01/09 04:46:51;;;;;;;8.15;3.30;;;-2.30;99.90;;;;;;4865377;29;20049;-75
2024/01/09 04:49:16;;;;;;;10.07;3.03;;;-2.30;99.90;;;;;;4865692;29;20041;-75
2024/01/09 04:51:42;;;;;;;8.95;3.30;;;-2.30;99.90;;;;;;4865613;29;20057;-75
2024/01/09 04:54:07;;;;;;;7.85;3.97;;;-2.30;99.90;;;;;;4864790;29;20518;-75
2024/01/09 04:56:33;;;;;;;7.72;3.17;;;-2.40;99.90;;;;;;4865377;29;20080;-76
2024/01/09 04:58:59;;;;;;;12.05;3.90;;;-2.40;99.90;;;;;;4865628;29;20053;-76
2024/01/09 05:01:28;;;;;;;7.18;3.47;;;-2.40;99.90;;;;;;4865513;29;20378;-76
2024/01/09 05:03:54;;;;;;;8.45;3.53;;;-2.40;99.90;;;;;;4865110;29;20557;-76
2024/01/09 05:06:21;;;;;;;9.00;3.78;;;-2.30;99.90;;;;;;4865101;29;20057;-75
2024/01/09 05:08:47;;;;;;;10.32;3.97;;;-2.30;99.90;;;;;;4865218;29;20040;-76
2024/01/09 05:11:13;;;;;;;6.63;3.50;;;-2.40;99.90;;;;;;4881780;29;20049;-76
2024/01/09 05:13:39;;;;;;;8.35;4.45;;;-2.40;99.90;;;;;;4865118;29;20045;-75
2024/01/09 05:16:05;;;;;;;6.70;2.88;;;-2.50;99.90;;;;;;4881779;29;20056;-75
2024/01/09 05:18:31;;;;;;;9.02;3.70;;;-2.50;99.90;;;;;;4864921;29;20045;-75
2024/01/09 05:20:57;;;;;;;10.02;4.57;;;-2.50;99.90;;;;;;4865176;29;20072;-75
2024/01/09 05:23:23;;;;;;;9.65;3.80;;;-2.50;99.90;;;;;;4864839;29;20405;-76
2024/01/09 05:25:48;;;;;;;6.40;3.35;;;-2.50;99.90;;;;;;4864863;29;20053;-75
2024/01/09 05:28:15;;;;;;;6.25;3.05;;;-2.50;99.90;;;;;;4864966;29;20052;-75
2024/01/09 05:30:41;;;;;;;8.45;3.75;;;-2.50;99.90;;;;;;4864759;29;20510;-76
2024/01/09 05:33:07;;;;;;;8.75;3.80;;;-2.60;99.90;;;;;;4864959;29;20094;-76
2024/01/09 05:35:33;;;;;;;10.75;3.85;;;-2.60;99.90;;;;;;4864604;29;20080;-75
2024/01/09 05:37:58;;;;;;;7.93;3.72;;;-2.60;99.90;;;;;;4881502;29;20182;-75
2024/01/09 05:40:24;;;;;;;9.90;4.78;;;-2.70;99.90;;;;;;4864889;29;20179;-76
2024/01/09 05:42:50;;;;;;;10.50;3.92;;;-2.70;99.90;;;;;;4864816;29;20482;-76
2024/01/09 05:45:15;;;;;;;9.30;3.60;;;-2.70;99.90;;;;;;4849265;29;20045;-75
2024/01/09 05:47:41;;;;;;;10.05;5.68;;;-2.70;99.90;;;;;;4864382;29;20128;-75
2024/01/09 05:50:08;;;;;;;9.85;4.38;;;-2.80;99.90;;;;;;4864667;29;20057;-76
2024/01/09 05:52:38;;;;;;;10.25;4.85;;;-2.70;99.90;;;;;;4864610;29;20061;-76
2024/01/09 05:55:05;;;;;;;8.52;3.75;;;-2.70;99.90;;;;;;4864530;29;20387;-75
2024/01/09 05:57:31;;;;;;;10.38;3.97;;;-2.70;99.90;;;;;;4864587;29;20049;-75
2024/01/09 05:59:57;;;;;;;11.98;4.65;;;-2.70;99.90;;;;;;4864363;29;20059;-75
2024/01/09 06:02:23;;;;;;;8.65;4.20;;;-2.70;99.90;;;;;;4864030;29;20048;-75
2024/01/09 06:04:48;;;;;;;11.00;5.18;;;-2.80;99.90;;;;;;4863849;29;20430;-75
2024/01/09 06:07:17;;;;;;;8.10;4.38;;;-2.80;99.90;;;;;;4864183;29;20499;-75
2024/01/09 06:09:43;;;;;;;7.97;4.20;;;-2.80;99.90;;;;;;4864089;29;20129;-75
2024/01/09 06:12:09;;;;;;;10.98;5.07;;;-2.80;99.90;;;;;;4864382;29;20130;-76
2024/01/09 06:14:34;;;;;;;10.00;5.00;;;-2.80;99.90;;;;;;4864179;29;20484;-76
2024/01/09 06:17:00;;;;;;;9.07;4.68;;;-2.80;99.90;;;;;;4863858;29;20068;-76
2024/01/09 06:19:26;;;;;;;9.48;4.05;;;-2.90;99.90;;;;;;4863907;29;20062;-76
2024/01/09 06:21:54;;;;;;;7.22;3.72;;;-2.90;99.90;;;;;;4864084;29;20053;-76
2024/01/09 06:24:21;;;;;;;8.07;4.10;;;-2.90;99.90;;;;;;4864017;29;20514;-76
2024/01/09 06:26:46;;;;;;;8.40;4.43;;;-2.90;99.90;;;;;;4864141;29;20389;-76
2024/01/09 06:29:12;;;;;;;11.70;3.75;;;-3.00;99.90;;;;;;4863662;29;20053;-76
2024/01/09 06:31:40;;;;;;;7.68;3.90;;;-3.00;99.90;;;;;;4863691;29;20041;-76
2024/01/09 06:34:06;;;;;;;8.02;4.00;;;-3.00;99.90;;;;;;4863905;29;20144;-76
2024/01/09 06:36:32;;;;;;;11.05;4.45;;;-3.00;99.90;;;;;;4863710;29;20261;-76
2024/01/09 06:38:57;;;;;;;9.40;4.60;;;-3.00;99.90;;;;;;4863678;29;20131;-76
2024/01/09 06:41:23;;;;;;;10.23;4.18;;;-3.00;99.90;;;;;;4863913;29;20049;-76
2024/01/09 06:43:50;;;;;;;8.75;4.57;;;-3.00;99.90;;;;;;4863389;29;20479;-75
2024/01/09 06:46:16;;;;;;;8.88;4.90;;;-3.10;99.90;;;;;;4863521;29;20064;-76
2024/01/09 06:48:41;;;;;;;11.20;4.65;;;-3.10;99.90;;;;;;4863663;29;20045;-76
2024/01/09 06:51:07;;;;;;;9.38;4.65;;;-3.10;99.90;;;;;;4863747;29;20493;-76
2024/01/09 06:53:33;;;;;;;9.55;4.43;;;-3.20;99.90;;;;;;4863732;29;20102;-76
2024/01/09 06:55:59;;;;;;;10.25;4.57;;;-3.20;99.90;;;;;;4863657;29;20061;-76
2024/01/09 06:58:24;;;;;;;7.93;4.53;;;-3.20;99.90;;;;;;4863303;29;20049;-76
2024/01/09 07:00:53;;;;;;;9.55;4.40;;;-3.20;99.90;;;;;;4863427;29;20077;-76
2024/01/09 07:03:21;;;;;;;9.20;4.60;;;-3.30;99.90;;;;;;4863304;29;20430;-76
2024/01/09 07:05:47;;;;;;;8.45;4.10;;;-3.30;99.90;;;;;;4863085;29;20493;-76
2024/01/09 07:08:13;;;;;;;9.98;5.20;;;-3.30;99.90;;;;;;4862929;29;20488;-75
2024/01/09 07:10:39;;;;;;;9.38;4.60;;;-3.30;99.90;;;;;;4863568;29;20060;-76
2024/01/09 07:13:04;;;;;;;10.07;4.35;;;-3.30;99.90;;;;;;4879753;29;20456;-76
2024/01/09 07:15:30;;;;;;;9.50;5.30;;;-3.30;99.90;;;;;;4863373;29;20059;-76
2024/01/09 07:17:56;;;;;;;8.82;4.63;;;-3.30;99.90;;;;;;4862783;29;20059;-76
2024/01/09 07:20:21;;;;;;;8.38;4.18;;;-3.30;99.90;;;;;;4863021;29;20518;-76
2024/01/09 07:22:48;;;;;;;10.05;4.13;;;-3.30;99.90;;;;;;4879918;29;20044;-76
2024/01/09 07:25:14;;;;;;;7.78;3.88;;;-3.30;99.90;;;;;;4863125;29;20132;-76
2024/01/09 07:27:40;;;;;;;9.02;4.47;;;-3.30;99.90;;;;;;4862833;29;20084;-76
2024/01/09 07:30:07;;;;;;;11.05;3.90;;;-3.30;99.90;;;;;;4862853;29;20072;-76
2024/01/09 07:32:33;;;;;;;9.27;3.90;;;-3.30;99.90;;;;;;4862310;29;20077;-76
2024/01/09 07:34:59;;;;;;;10.45;4.05;;;-3.20;99.90;;;;;;4862522;29;20076;-76
2024/01/09 07:37:25;;;;;;;8.85;4.03;;;-3.30;99.90;;;;;;4863233;29;20067;-75
2024/01/09 07:39:50;;;;;;;9.10;3.63;;;-3.30;99.90;;;;;;4862787;29;20520;-76
2024/01/09 07:42:16;;;;;;;8.20;3.65;;;-3.30;99.90;;;;;;4862676;29;20049;-76
2024/01/09 07:44:42;;;;;;;7.53;3.35;;;-3.30;99.90;;;;;;4862738;29;20057;-76
2024/01/09 07:47:09;;;;;;;11.18;4.32;;;-3.30;99.90;;;;;;4862774;29;20045;-76
2024/01/09 07:49:34;;;;;;;12.40;6.45;;;-3.40;99.90;;;;;;4862720;29;20052;-76
2024/01/09 07:52:00;;;;;;;13.73;5.47;;;-3.40;99.90;;;;;;4862717;29;20045;-76
2024/01/09 07:54:25;;;;;;;14.32;5.95;;;-3.40;99.90;;;;;;4862936;29;20139;-76
2024/01/09 07:56:51;;;;;;;8.05;4.85;;;-3.40;99.90;;;;;;4862621;29;20052;-76
2024/01/09 07:59:17;;;;;;;11.50;7.20;;;-3.30;99.90;;;;;;4862598;29;20056;-76
2024/01/09 08:01:42;;;;;;;11.02;5.00;;;-3.40;99.90;;;;;;4879560;29;20049;-76
2024/01/09 08:04:08;;;;;;;9.52;4.88;;;-3.40;99.90;;;;;;4862438;29;20515;-76
2024/01/09 08:06:35;;;;;;;9.52;4.95;;;-3.30;99.90;;;;;;4862825;29;20053;-76
2024/01/09 08:09:00;;;;;;;9.73;5.30;;;-3.30;99.90;;;;;;4862503;29;20492;-76
2024/01/09 08:11:26;;;;;;;8.43;4.20;;;-3.30;99.90;;;;;;4862906;29;20049;-76
2024/01/09 08:13:51;;;;;;;13.32;5.78;;;-3.30;99.90;;;;;;4862686;29;20084;-76
2024/01/09 08:16:17;;;;;;;7.60;4.30;;;-3.30;99.90;;;;;;4862849;29;20053;-76
2024/01/09 08:18:43;;;;;;;9.02;4.60;;;-3.30;99.90;;;;;;4862773;29;20044;-76
2024/01/09 08:21:08;;;;;;;8.43;4.03;;;-3.20;99.90;;;;;;4862408;29;20408;-76
2024/01/09 08:23:35;;;;;;;9.18;4.28;;;-3.20;99.90;;;;;;4862532;29;20049;-76
2024/01/09 08:26:01;;;;;;;10.98;5.97;;;-3.20;99.90;;;;;;4862603;29;20048;-76
2024/01/09 08:28:27;;;;;;;10.35;4.63;;;-3.20;99.90;;;;;;4862434;29;20133;-76
2024/01/09 08:30:53;;;;;;;8.90;5.65;;;-3.20;99.90;;;;;;4864255;29;20081;-76
2024/01/09 08:33:19;;;;;;;12.02;5.05;;;-3.20;99.90;;;;;;4865562;29;20054;-76
2024/01/09 08:35:49;;;;;;;11.27;5.45;;;-3.20;99.90;;;;;;4865670;29;20049;-76
2024/01/09 08:38:16;;;;;;;7.95;4.55;;;-3.10;99.90;;;;;;4865711;29;20060;-76
2024/01/09 08:40:44;;;;;;;9.25;4.55;;;-3.10;99.90;;;;;;4865557;29;20488;-76
2024/01/09 08:43:10;;;;;;;8.27;3.88;;;-3.00;99.90;;;;;;4882505;29;20060;-76
2024/01/09 08:45:36;;;;;;;10.98;6.30;;;-3.00;99.90;;;;;;4850179;29;20579;-76
2024/01/09 08:48:01;;;;;;;9.43;5.10;;;-3.00;99.90;;;;;;4859183;29;20057;-75
2024/01/09 08:50:27;;;;;;;11.07;5.43;;;-2.90;99.90;;;;;;4868146;29;20169;-75
2024/01/09 08:52:54;;;;;;;10.13;4.18;;;-2.90;99.90;;;;;;4863204;29;20053;-75
2024/01/09 08:55:20;;;;;;;10.25;5.15;;;-2.90;99.90;;;;;;4846298;29;20094;-76
2024/01/09 08:57:46;;;;;;;8.57;4.90;;;-2.80;99.90;;;;;;4846408;29;20053;-75
2024/01/09 09:00:13;;;;;;;8.45;4.93;;;-2.80;99.90;;;;;;4863294;29;20092;-75
2024/01/09 09:02:38;;;;;;;8.20;4.30;;;-2.80;99.90;;;;;;4846502;29;20071;-75
2024/01/09 09:05:05;;;;;;;11.05;5.28;;;-2.70;99.90;;;;;;4846102;29;20141;-75
2024/01/09 09:07:30;;;;;;;10.02;5.05;;;-2.70;99.90;;;;;;4846429;29;20060;-74
2024/01/09 09:09:57;;;;;;;11.88;6.22;;;-2.60;99.90;;;;;;4846370;29;20053;-74
2024/01/09 09:12:23;;;;;;;11.63;6.05;;;-2.50;99.90;;;;;;4846562;29;20442;-74
2024/01/09 09:14:48;;;;;;;9.25;4.47;;;-2.50;99.90;;;;;;4846308;29;20058;-74
2024/01/09 09:17:16;;;;;;;8.48;4.20;;;-2.50;99.90;;;;;;4846213;29;20056;-74
2024/01/09 09:19:41;;;;;;;8.55;4.80;;;-2.40;99.90;;;;;;4846348;29;20049;-76
2024/01/09 09:22:07;;;;;;;8.50;4.40;;;-2.30;99.90;;;;;;4846436;29;20379;-75
2024/01/09 09:24:33;;;;;;;9.30;4.22;;;-2.30;99.90;;;;;;4846219;29;20418;-75
2024/01/09 09:26:59;;;;;;;9.43;3.97;;;-2.20;99.90;;;;;;4846089;29;20465;-74
2024/01/09 09:29:24;;;;;;;8.68;3.95;;;-2.20;99.90;;;;;;4846043;29;20056;-75
2024/01/09 09:31:50;;;;;;;7.93;3.60;;;-2.10;99.90;;;;;;4846023;29;20060;-75
2024/01/09 09:34:15;;;;;;;11.30;4.22;;;-2.10;99.90;;;;;;4845907;29;20185;-74
2024/01/09 09:36:41;;;;;;;9.13;4.00;;;-2.00;99.90;;;;;;4846120;29;20057;-75
2024/01/09 09:39:06;;;;;;;9.68;4.28;;;-2.00;99.90;;;;;;4846028;29;20402;-74
2024/01/09 09:41:34;;;;;;;13.20;4.40;;;-1.90;99.90;;;;;;4845575;29;20049;-75
2024/01/09 09:44:03;;;;;;;8.95;4.30;;;-1.80;99.90;;;;;;4845714;29;20056;-75
2024/01/09 09:46:31;;;;;;;8.35;3.72;;;-1.70;99.90;;;;;;4845701;29;20141;-75
2024/01/09 09:48:57;;;;;;;9.38;3.83;;;-1.60;99.90;;;;;;4845905;29;20061;-75
2024/01/09 09:51:24;;;;;;;8.10;4.15;;;-1.60;99.90;;;;;;4845657;29;20057;-75
2024/01/09 09:53:51;;;;;;;9.90;3.92;;;-1.60;99.90;;;;;;4849247;29;20637;-75
2024/01/09 09:56:16;;;;;;;7.97;4.13;;;-1.50;99.90;;;;;;4898851;29;20571;-75
2024/01/09 09:58:42;;;;;;;8.93;4.43;;;-1.40;99.90;;;;;;4882845;29;20052;-76
2024/01/09 10:01:13;;;;;;;12.38;5.13;;;-1.30;99.90;;;;;;4882732;29;20045;-76
2024/01/09 10:03:55;;;;;;;8.48;4.93;;;-1.30;99.90;;;;;;4882431;29;20064;-76
2024/01/09 10:06:21;;;;;;;7.72;3.83;;;-1.20;99.90;;;;;;4899479;29;20084;-76
2024/01/09 10:08:50;;;;;;;9.77;4.68;;;-1.20;99.90;;;;;;4882393;29;20045;-76
2024/01/09 10:11:16;;;;;;;10.50;5.00;;;-1.10;99.90;;;;;;4882278;29;20057;-76
2024/01/09 10:13:43;;;;;;;10.45;4.45;;;-1.00;99.90;;;;;;4882256;29;20055;-75
2024/01/09 10:16:09;;;;;;;9.05;3.60;;;-1.00;99.90;;;;;;4864399;29;20049;-76
2024/01/09 10:18:35;;;;;;;7.32;4.07;;;-0.90;99.90;;;;;;4863932;29;20136;-76
2024/01/09 10:21:01;;;;;;;6.82;3.78;;;-0.90;99.90;;;;;;4868272;29;20052;-76
2024/01/09 10:23:28;;;;;;;7.50;3.35;;;-0.80;99.90;;;;;;4870807;29;20409;-76
2024/01/09 10:25:54;;;;;;;7.20;3.88;;;-0.80;99.90;;;;;;4863314;29;20048;-76
2024/01/09 10:28:21;;;;;;;9.90;4.22;;;-0.70;99.90;;;;;;4894314;29;20048;-76
2024/01/09 10:30:47;;;;;;;8.65;4.63;;;-0.70;99.90;;;;;;4863422;29;20139;-77
2024/01/09 10:33:14;;;;;;;7.15;3.35;;;-0.60;99.90;;;;;;4884579;29;20045;-76
2024/01/09 10:35:41;;;;;;;9.80;3.88;;;-0.60;99.90;;;;;;4863587;29;20053;-76
2024/01/09 10:38:09;;;;;;;6.63;3.67;;;-0.60;99.90;;;;;;4879440;29;20409;-77
2024/01/09 10:40:35;;;;;;;6.72;3.35;;;-0.50;99.90;;;;;;4863297;29;20518;-76
2024/01/09 10:43:01;;;;;;;8.18;4.10;;;-0.50;99.90;;;;;;4863226;29;20170;-76
2024/01/09 10:45:27;;;;;;;5.38;2.58;;;-0.50;99.90;;;;;;4863143;29;20049;-76
2024/01/09 10:47:53;;;;;;;5.93;3.63;;;-0.40;99.90;;;;;;4863337;29;20481;-77
2024/01/09 10:50:23;;;;;;;6.93;3.50;;;-0.50;99.90;;;;;;4863472;29;20057;-76
2024/01/09 10:52:50;;;;;;;6.70;3.03;;;-0.40;99.90;;;;;;4862488;29;20461;-76
2024/01/09 10:55:18;;;;;;;6.47;3.03;;;-0.40;99.90;;;;;;4863159;29;20120;-77
2024/01/09 10:57:49;;;;;;;6.15;3.00;;;-0.30;99.90;;;;;;4862952;29;20048;-77
2024/01/09 11:00:16;;;;;;;7.93;3.33;;;-0.30;99.90;;;;;;4863617;29;20545;-75
2024/01/09 11:02:42;;;;;;;4.68;2.50;;;-0.20;99.90;;;;;;4862898;29;20401;-76
2024/01/09 11:05:13;;;;;;;7.05;2.85;;;-0.20;99.90;;;;;;4862725;29;20059;-74
2024/01/09 11:07:45;;;;;;;7.50;2.60;;;-0.10;99.90;;;;;;4862972;29;20462;-81
2024/01/09 11:10:19;;;;;;;6.35;2.40;;;-0.10;99.90;;;;;;4862861;29;20060;-74
2024/01/09 11:12:48;;;;;;;5.78;2.83;;;0.00;99.90;;;;;;4863114;29;20049;-75
2024/01/09 11:15:19;;;;;;;6.97;2.70;;;0.00;99.90;;;;;;4863126;29;20071;-74
2024/01/09 11:17:53;;;;;;;8.23;2.40;;;0.00;99.90;;;;;;4862805;29;20129;-75
2024/01/09 11:20:19;;;;;;;4.97;2.78;;;0.10;99.90;;;;;;4862765;29;20135;-75
2024/01/09 11:22:45;;;;;;;6.45;3.40;;;0.20;99.90;;;;;;4862720;29;20127;-75
2024/01/09 11:25:18;;;;;;;7.15;2.75;;;0.20;99.90;;;;;;4862680;29;20049;-75
2024/01/09 11:27:47;;;;;;;7.97;3.10;;;0.20;99.90;;;;;;4862772;29;20098;-75
2024/01/09 11:30:16;;;;;;;8.38;3.35;;;0.20;99.90;;;;;;4863040;29;20108;-75
2024/01/09 11:32:41;;;;;;;6.88;3.28;;;0.10;99.90;;;;;;4862929;29;20081;-75
2024/01/09 11:35:18;;;;;;;7.25;3.03;;;0.20;99.90;;;;;;4862774;29;20103;-75
2024/01/09 11:37:46;;;;;;;7.53;3.45;;;0.20;99.90;;;;;;4862684;29;20049;-75
2024/01/09 11:40:13;;;;;;;7.78;3.63;;;0.10;99.90;;;;;;4862613;29;20049;-75
2024/01/09 11:42:50;;;;;;;6.63;2.92;;;0.10;99.90;;;;;;4879378;29;20512;-75
2024/01/09 11:45:25;;;;;;;5.18;2.90;;;0.00;99.90;;;;;;4879214;29;20048;-75
2024/01/09 11:47:53;;;;;;;5.63;2.17;;;0.00;99.90;;;;;;4862572;29;20048;-75
2024/01/09 11:50:19;;;;;;;7.72;2.47;;;0.10;99.90;;;;;;4862859;29;20053;-75
2024/01/09 11:52:47;;;;;;;9.90;3.85;;;0.10;99.90;;;;;;4862853;29;20109;-75
2024/01/09 11:55:12;;;;;;;5.18;2.80;;;0.10;99.90;;;;;;4862724;29;20124;-76
2024/01/09 11:57:41;;;;;;;5.07;2.15;;;0.10;99.90;;;;;;4862718;29;20471;-73
2024/01/09 12:00:09;;;;;;;8.93;2.80;;;0.10;99.90;;;;;;4862622;29;20064;-75
2024/01/09 12:02:38;;;;;;;5.03;2.20;;;0.10;99.90;;;;;;4862527;29;20045;-75
2024/01/09 12:05:05;;;;;;;4.90;2.42;;;0.20;99.90;;;;;;4865087;29;20113;-75
2024/01/09 12:07:36;;;;;;;7.85;3.53;;;0.10;99.90;;;;;;4865946;29;20116;-74
2024/01/09 12:10:02;;;;;;;6.85;2.42;;;0.20;99.90;;;;;;4866172;29;20060;-80
2024/01/09 12:12:28;;;;;;;5.57;2.60;;;0.30;99.90;;;;;;4866191;29;20060;-74
2024/01/09 12:14:54;;;;;;;4.97;2.47;;;0.40;99.90;;;;;;4865768;29;20482;-75
2024/01/09 12:17:23;;;;;;;6.22;2.80;;;0.40;99.90;;;;;;4866053;29;20049;-75
2024/01/09 12:19:52;;;;;;;5.97;2.97;;;0.30;99.90;;;;;;4865714;29;20448;-75
2024/01/09 12:22:21;;;;;;;6.18;2.58;;;0.30;99.90;;;;;;4865674;29;20131;-74
2024/01/09 12:24:53;;;;;;;6.93;3.00;;;0.30;99.90;;;;;;4882229;29;20048;-74
2024/01/09 12:27:21;;;;;;;7.30;2.30;;;0.20;99.90;;;;;;4882420;29;20098;-76
2024/01/09 12:29:47;;;;;;;5.30;2.33;;;0.30;99.90;;;;;;4865758;29;20076;-75
2024/01/09 12:32:13;;;;;;;5.45;2.50;;;0.30;99.90;;;;;;4865753;29;20061;-74
2024/01/09 12:34:39;;;;;;;8.68;2.40;;;0.30;99.90;;;;;;4865668;29;20057;-76
2024/01/09 12:37:08;;;;;;;5.78;1.98;;;0.30;99.90;;;;;;4865236;29;20108;-74
2024/01/09 12:39:37;;;;;;;4.25;1.80;;;0.40;99.90;;;;;;4865662;29;20053;-74
2024/01/09 12:42:06;;;;;;;5.05;2.28;;;0.30;99.90;;;;;;4865266;29;20554;-76